| time (UTC) | temp C | wind direction | speed KPH | gust KPH | rain 1hr cm | rain 24hr cm | rain mn cm | humidity % | barometer mb |
| 20260508020139 | 15 | 266 | 4.8 | 4.8 | 0.00 | 0.00 | 0.00 | 52 | 1012.0 |
| 20260508015637 | 16 | 303 | 8.0 | 9.7 | 0.00 | 0.00 | 0.00 | 48 | 1012.2 |
| 20260508015133 | 17 | 258 | 3.2 | 3.2 | 0.00 | 0.00 | 0.00 | 45 | 1012.0 |
| 20260508014630 | 17 | 243 | 4.8 | 4.8 | 0.00 | 0.00 | 0.00 | 45 | 1011.7 |
| 20260508014126 | 17 | 219 | 4.8 | 4.8 | 0.00 | 0.00 | 0.00 | 45 | 1011.9 |
| 20260508013622 | 17 | 219 | 1.6 | 1.6 | 0.00 | 0.00 | 0.00 | 46 | 1011.5 |
| 20260508013120 | 17 | 194 | 1.6 | 0.0 | 0.00 | 0.00 | 0.00 | 45 | 1011.5 |
| 20260508012617 | 17 | 189 | 1.6 | 1.6 | 0.00 | 0.00 | 0.00 | 44 | 1011.4 |
| 20260508012114 | 17 | 189 | 0.0 | 0.0 | 0.00 | 0.00 | 0.00 | 43 | 1011.8 |
| 20260508011612 | 17 | 189 | 0.0 | 1.6 | 0.00 | 0.00 | 0.00 | 42 | 1011.4 |
| 20260508011109 | 18 | 188 | 0.0 | 0.0 | 0.00 | 0.00 | 0.00 | 42 | 1011.3 |
| 20260508010606 | 18 | 188 | 1.6 | 1.6 | 0.00 | 0.00 | 0.00 | 42 | 1011.2 |
| 20260508010104 | 18 | 195 | 4.8 | 4.8 | 0.00 | 0.00 | 0.00 | 42 | 1011.1 |
| 20260508005600 | 18 | 212 | 4.8 | 4.8 | 0.00 | 0.00 | 0.00 | 41 | 1011.0 |
| 20260508005057 | 18 | 185 | 6.4 | 6.4 | 0.00 | 0.00 | 0.00 | 41 | 1011.1 |
| 20260508004553 | 19 | 208 | 6.4 | 6.4 | 0.00 | 0.00 | 0.00 | 40 | 1011.0 |
| 20260508004050 | 19 | 250 | 4.8 | 4.8 | 0.00 | 0.00 | 0.00 | 40 | 1011.0 |
| 20260508003546 | 19 | 189 | 9.7 | 11.3 | 0.00 | 0.00 | 0.00 | 39 | 1010.9 |
| 20260508003044 | 19 | 197 | 8.0 | 11.3 | 0.00 | 0.00 | 0.00 | 39 | 1010.9 |
| 20260508002540 | 19 | 206 | 6.4 | 4.8 | 0.00 | 0.00 | 0.00 | 39 | 1011.0 |
| 20260508002037 | 20 | 217 | 9.7 | 11.3 | 0.00 | 0.00 | 0.00 | 38 | 1011.1 |
| 20260508001533 | 20 | 168 | 9.7 | 14.5 | 0.00 | 0.00 | 0.00 | 38 | 1011.0 |
| 20260508001029 | 20 | 210 | 11.3 | 12.9 | 0.00 | 0.00 | 0.00 | 37 | 1011.0 |
| 20260508000525 | 20 | 190 | 17.7 | 20.9 | 0.00 | 0.00 | 0.00 | 36 | 1011.2 |
| 20260508000023 | 20 | 225 | 4.8 | 4.8 | 0.00 | 0.00 | 0.00 | 37 | 1011.1 |
| 20260507235519 | 20 | 184 | 8.0 | 9.7 | 0.00 | 0.00 | 0.00 | 37 | 1011.0 |
| 20260507235017 | 20 | 177 | 12.9 | 14.5 | 0.00 | 0.00 | 0.00 | 35 | 1010.9 |
| 20260507234513 | 20 | 217 | 11.3 | 14.5 | 0.00 | 0.00 | 0.00 | 35 | 1010.9 |
| 20260507234010 | 20 | 206 | 8.0 | 11.3 | 0.00 | 0.00 | 0.00 | 35 | 1011.1 |
| 20260507233506 | 20 | 201 | 11.3 | 16.1 | 0.00 | 0.00 | 0.00 | 33 | 1011.1 |
| 20260507233005 | 21 | 260 | 6.4 | 6.4 | 0.00 | 0.00 | 0.00 | 33 | 1011.3 |
| 20260507232501 | 21 | 216 | 11.3 | 14.5 | 0.00 | 0.00 | 0.00 | 32 | 1011.1 |
| 20260507231958 | 20 | 179 | 11.3 | 12.9 | 0.00 | 0.00 | 0.00 | 33 | 1011.4 |
| 20260507231454 | 20 | 250 | 12.9 | 16.1 | 0.00 | 0.00 | 0.00 | 32 | 1011.4 |
| 20260507230952 | 20 | 220 | 6.4 | 9.7 | 0.00 | 0.00 | 0.00 | 33 | 1011.3 |
| 20260507230449 | 20 | 262 | 12.9 | 16.1 | 0.00 | 0.00 | 0.00 | 32 | 1011.7 |
| 20260507225944 | 20 | 261 | 11.3 | 12.9 | 0.00 | 0.00 | 0.00 | 32 | 1011.5 |
| 20260507225440 | 21 | 254 | 14.5 | 16.1 | 0.00 | 0.00 | 0.00 | 33 | 1011.7 |
| 20260507224936 | 21 | 202 | 12.9 | 16.1 | 0.00 | 0.00 | 0.00 | 34 | 1011.5 |
| 20260507224432 | 21 | 199 | 8.0 | 12.9 | 0.00 | 0.00 | 0.00 | 33 | 1011.8 |
| 20260507223929 | 21 | 183 | 17.7 | 22.5 | 0.00 | 0.00 | 0.00 | 33 | 1011.9 |
| 20260507223425 | 21 | 290 | 11.3 | 12.9 | 0.00 | 0.00 | 0.00 | 32 | 1011.8 |
| 20260507222922 | 21 | 244 | 11.3 | 14.5 | 0.00 | 0.00 | 0.00 | 32 | 1011.8 |
| 20260507222419 | 21 | 240 | 11.3 | 12.9 | 0.00 | 0.00 | 0.00 | 31 | 1012.1 |
| 20260507221916 | 21 | 249 | 12.9 | 16.1 | 0.00 | 0.00 | 0.00 | 31 | 1011.9 |
| 20260507221412 | 21 | 215 | 9.7 | 11.3 | 0.00 | 0.00 | 0.00 | 32 | 1012.1 |
| 20260507220908 | 21 | 277 | 19.3 | 22.5 | 0.00 | 0.00 | 0.00 | 31 | 1012.1 |
| 20260507220407 | 20 | 242 | 16.1 | 20.9 | 0.00 | 0.00 | 0.00 | 31 | 1012.1 |
| 20260507215903 | 20 | 247 | 12.9 | 16.1 | 0.00 | 0.00 | 0.00 | 31 | 1012.4 |
| 20260507215400 | 20 | 223 | 19.3 | 25.7 | 0.00 | 0.00 | 0.00 | 31 | 1012.4 |
| 20260507214857 | 20 | 246 | 14.5 | 16.1 | 0.00 | 0.00 | 0.00 | 33 | 1012.3 |
| 20260507214354 | 20 | 233 | 16.1 | 17.7 | 0.00 | 0.00 | 0.00 | 32 | 1012.3 |
| 20260507213850 | 20 | 235 | 22.5 | 27.4 | 0.00 | 0.00 | 0.00 | 32 | 1012.5 |
| 20260507213347 | 20 | 236 | 8.0 | 11.3 | 0.00 | 0.00 | 0.00 | 33 | 1012.6 |
| 20260507212843 | 20 | 247 | 14.5 | 17.7 | 0.00 | 0.00 | 0.00 | 33 | 1012.8 |
| 20260507212339 | 19 | 212 | 16.1 | 20.9 | 0.00 | 0.00 | 0.00 | 33 | 1012.9 |
| 20260507211836 | 20 | 242 | 14.5 | 17.7 | 0.00 | 0.00 | 0.00 | 33 | 1013.0 |
| 20260507211333 | 20 | 261 | 19.3 | 24.1 | 0.00 | 0.00 | 0.00 | 33 | 1012.8 |
| 20260507210830 | 20 | 219 | 19.3 | 20.9 | 0.00 | 0.00 | 0.00 | 33 | 1013.0 |
| 20260507210327 | 20 | 243 | 16.1 | 17.7 | 0.00 | 0.00 | 0.00 | 34 | 1013.1 |
| 20260507205823 | 20 | 264 | 12.9 | 12.9 | 0.00 | 0.00 | 0.00 | 34 | 1013.0 |
| 20260507205320 | 19 | 254 | 12.9 | 14.5 | 0.00 | 0.00 | 0.00 | 35 | 1013.0 |
| 20260507204816 | 20 | 264 | 14.5 | 16.1 | 0.00 | 0.00 | 0.00 | 35 | 1013.2 |
| 20260507204314 | 20 | 266 | 22.5 | 27.4 | 0.00 | 0.00 | 0.00 | 34 | 1013.2 |
| 20260507203812 | 19 | 246 | 16.1 | 20.9 | 0.00 | 0.00 | 0.00 | 34 | 1013.1 |
| 20260507203309 | 19 | 240 | 11.3 | 14.5 | 0.00 | 0.00 | 0.00 | 34 | 1013.4 |
| 20260507202805 | 19 | 271 | 20.9 | 24.1 | 0.00 | 0.00 | 0.00 | 33 | 1013.0 |
| 20260507202301 | 20 | 263 | 14.5 | 16.1 | 0.00 | 0.00 | 0.00 | 33 | 1013.4 |
| 20260507201756 | 20 | 262 | 11.3 | 17.7 | 0.00 | 0.00 | 0.00 | 35 | 1013.4 |
| 20260507201253 | 20 | 256 | 17.7 | 22.5 | 0.00 | 0.00 | 0.00 | 34 | 1013.6 |
| 20260507200749 | 20 | 260 | 12.9 | 14.5 | 0.00 | 0.00 | 0.00 | 34 | 1013.4 |
| 20260507200245 | 19 | 269 | 22.5 | 24.1 | 0.00 | 0.00 | 0.00 | 33 | 1013.6 |
| 20260507195742 | 19 | 263 | 19.3 | 22.5 | 0.00 | 0.00 | 0.00 | 34 | 1013.5 |
| 20260507195239 | 19 | 262 | 11.3 | 12.9 | 0.00 | 0.00 | 0.00 | 35 | 1013.8 |
| 20260507194737 | 19 | 265 | 22.5 | 25.7 | 0.00 | 0.00 | 0.00 | 34 | 1013.5 |
| 20260507194232 | 19 | 279 | 16.1 | 22.5 | 0.00 | 0.00 | 0.00 | 36 | 1013.6 |
| 20260507193729 | 19 | 279 | 12.9 | 14.5 | 0.00 | 0.00 | 0.00 | 35 | 1013.8 |
| 20260507193226 | 19 | 242 | 27.4 | 29.0 | 0.00 | 0.00 | 0.00 | 32 | 1013.7 |
| 20260507192722 | 18 | 245 | 16.1 | 22.5 | 0.00 | 0.00 | 0.00 | 37 | 1014.0 |
| 20260507192219 | 18 | 213 | 17.7 | 25.7 | 0.00 | 0.00 | 0.00 | 36 | 1013.9 |
| 20260507191714 | 19 | 271 | 20.9 | 24.1 | 0.00 | 0.00 | 0.00 | 34 | 1013.9 |
| 20260507191212 | 18 | 277 | 14.5 | 20.9 | 0.00 | 0.00 | 0.00 | 35 | 1014.2 |
| 20260507190709 | 18 | 298 | 20.9 | 25.7 | 0.00 | 0.00 | 0.00 | 35 | 1014.0 |
| 20260507190207 | 18 | 246 | 11.3 | 14.5 | 0.00 | 0.00 | 0.00 | 36 | 1014.2 |
| 20260507185705 | 18 | 258 | 22.5 | 27.4 | 0.00 | 0.00 | 0.00 | 36 | 1014.0 |
| 20260507185202 | 18 | 230 | 16.1 | 17.7 | 0.00 | 0.00 | 0.00 | 36 | 1014.2 |
| 20260507184659 | 18 | 241 | 14.5 | 16.1 | 0.00 | 0.00 | 0.00 | 37 | 1014.2 |
| 20260507184157 | 18 | 242 | 14.5 | 16.1 | 0.00 | 0.00 | 0.00 | 36 | 1014.4 |
| 20260507183653 | 18 | 216 | 27.4 | 29.0 | 0.00 | 0.00 | 0.00 | 35 | 1014.3 |
| 20260507183150 | 18 | 233 | 14.5 | 17.7 | 0.00 | 0.00 | 0.00 | 37 | 1014.4 |
| 20260507182648 | 18 | 228 | 19.3 | 24.1 | 0.00 | 0.00 | 0.00 | 37 | 1014.4 |
| 20260507182143 | 18 | 256 | 19.3 | 24.1 | 0.00 | 0.00 | 0.00 | 37 | 1014.4 |
| 20260507181640 | 18 | 255 | 9.7 | 11.3 | 0.00 | 0.00 | 0.00 | 37 | 1014.4 |
| 20260507181136 | 18 | 202 | 20.9 | 24.1 | 0.00 | 0.00 | 0.00 | 37 | 1014.7 |
| 20260507180633 | 18 | 251 | 17.7 | 17.7 | 0.00 | 0.00 | 0.00 | 37 | 1014.8 |
| 20260507180130 | 17 | 270 | 17.7 | 24.1 | 0.00 | 0.00 | 0.00 | 39 | 1014.9 |
| 20260507175625 | 17 | 230 | 17.7 | 20.9 | 0.00 | 0.00 | 0.00 | 39 | 1014.9 |
| 20260507175123 | 18 | 268 | 20.9 | 24.1 | 0.00 | 0.00 | 0.00 | 38 | 1015.0 |
| 20260507174620 | 18 | 273 | 12.9 | 14.5 | 0.00 | 0.00 | 0.00 | 39 | 1014.9 |
| 20260507174118 | 17 | 269 | 11.3 | 16.1 | 0.00 | 0.00 | 0.00 | 40 | 1015.0 |
| 20260507173615 | 17 | 215 | 9.7 | 11.3 | 0.00 | 0.00 | 0.00 | 41 | 1015.3 |
| 20260507173112 | 17 | 272 | 22.5 | 27.4 | 0.00 | 0.00 | 0.00 | 38 | 1015.3 |
| 20260507172608 | 17 | 310 | 16.1 | 17.7 | 0.00 | 0.00 | 0.00 | 43 | 1015.4 |
| 20260507172106 | 16 | 304 | 19.3 | 24.1 | 0.00 | 0.00 | 0.00 | 41 | 1015.4 |
| 20260507171600 | 17 | 271 | 29.0 | 30.6 | 0.00 | 0.00 | 0.00 | 41 | 1015.8 |
| 20260507171057 | 17 | 232 | 14.5 | 17.7 | 0.00 | 0.00 | 0.00 | 43 | 1015.6 |
| 20260507170554 | 17 | 234 | 17.7 | 17.7 | 0.00 | 0.00 | 0.00 | 42 | 1015.7 |
| 20260507170051 | 17 | 270 | 17.7 | 22.5 | 0.00 | 0.00 | 0.00 | 42 | 1016.0 |
| 20260507165547 | 16 | 252 | 14.5 | 16.1 | 0.00 | 0.00 | 0.00 | 44 | 1016.1 |
| 20260507165044 | 16 | 293 | 17.7 | 24.1 | 0.00 | 0.00 | 0.00 | 44 | 1015.9 |
| 20260507164540 | 16 | 264 | 17.7 | 22.5 | 0.00 | 0.00 | 0.00 | 41 | 1016.1 |
| 20260507164037 | 16 | 273 | 12.9 | 16.1 | 0.00 | 0.00 | 0.00 | 43 | 1016.2 |
| 20260507163535 | 16 | 274 | 12.9 | 16.1 | 0.00 | 0.00 | 0.00 | 45 | 1016.2 |
| 20260507163033 | 16 | 269 | 17.7 | 25.7 | 0.00 | 0.00 | 0.00 | 46 | 1016.3 |
| 20260507162532 | 16 | 229 | 19.3 | 22.5 | 0.00 | 0.00 | 0.00 | 45 | 1016.2 |
| 20260507162030 | 16 | 212 | 9.7 | 9.7 | 0.00 | 0.00 | 0.00 | 46 | 1016.1 |
| 20260507161526 | 16 | 273 | 16.1 | 20.9 | 0.00 | 0.00 | 0.00 | 45 | 1016.3 |
| 20260507161023 | 16 | 263 | 9.7 | 11.3 | 0.00 | 0.00 | 0.00 | 47 | 1016.3 |
| 20260507160519 | 16 | 224 | 12.9 | 16.1 | 0.00 | 0.00 | 0.00 | 48 | 1016.3 |
| 20260507160015 | 15 | 308 | 12.9 | 16.1 | 0.00 | 0.00 | 0.00 | 48 | 1016.5 |
| 20260507155510 | 15 | 260 | 22.5 | 25.7 | 0.00 | 0.00 | 0.00 | 47 | 1016.4 |
| 20260507155008 | 15 | 237 | 14.5 | 16.1 | 0.00 | 0.00 | 0.00 | 48 | 1016.5 |
| 20260507154504 | 15 | 259 | 14.5 | 20.9 | 0.00 | 0.00 | 0.00 | 49 | 1016.4 |
| 20260507154002 | 15 | 275 | 11.3 | 12.9 | 0.00 | 0.00 | 0.00 | 52 | 1016.5 |
| 20260507153458 | 15 | 263 | 16.1 | 16.1 | 0.00 | 0.00 | 0.00 | 51 | 1016.5 |
| 20260507152955 | 15 | 231 | 11.3 | 12.9 | 0.00 | 0.00 | 0.00 | 52 | 1016.8 |
| 20260507152451 | 15 | 236 | 17.7 | 20.9 | 0.00 | 0.00 | 0.00 | 49 | 1016.6 |
| 20260507151947 | 15 | 278 | 14.5 | 24.1 | 0.00 | 0.00 | 0.00 | 50 | 1016.7 |
| 20260507151444 | 14 | 262 | 8.0 | 9.7 | 0.00 | 0.00 | 0.00 | 55 | 1016.7 |
| 20260507150940 | 13 | 277 | 6.4 | 9.7 | 0.00 | 0.00 | 0.00 | 55 | 1016.8 |
| 20260507150437 | 13 | 251 | 9.7 | 11.3 | 0.00 | 0.00 | 0.00 | 56 | 1016.6 |
| 20260507145934 | 13 | 213 | 14.5 | 16.1 | 0.00 | 0.00 | 0.00 | 56 | 1016.7 |
| 20260507145429 | 13 | 267 | 19.3 | 24.1 | 0.00 | 0.00 | 0.00 | 54 | 1016.8 |
| 20260507144927 | 13 | 299 | 8.0 | 9.7 | 0.00 | 0.00 | 0.00 | 58 | 1016.8 |
| 20260507144424 | 13 | 312 | 20.9 | 29.0 | 0.00 | 0.00 | 0.00 | 57 | 1016.7 |
| 20260507143921 | 12 | 275 | 22.5 | 24.1 | 0.00 | 0.00 | 0.00 | 58 | 1016.8 |
| 20260507143418 | 12 | 274 | 12.9 | 16.1 | 0.00 | 0.00 | 0.00 | 60 | 1016.8 |
| 20260507142914 | 12 | 259 | 14.5 | 14.5 | 0.00 | 0.00 | 0.00 | 60 | 1016.9 |
| 20260507142410 | 12 | 209 | 16.1 | 20.9 | 0.00 | 0.00 | 0.00 | 60 | 1016.9 |
| 20260507141907 | 12 | 281 | 12.9 | 16.1 | 0.00 | 0.00 | 0.00 | 62 | 1016.7 |
| 20260507141404 | 12 | 272 | 19.3 | 22.5 | 0.00 | 0.00 | 0.00 | 61 | 1016.8 |
| 20260507140900 | 11 | 267 | 12.9 | 14.5 | 0.00 | 0.00 | 0.00 | 63 | 1016.8 |
| 20260507140357 | 11 | 229 | 16.1 | 16.1 | 0.00 | 0.00 | 0.00 | 62 | 1016.9 |
| 20260507135855 | 11 | 245 | 11.3 | 16.1 | 0.00 | 0.00 | 0.00 | 64 | 1017.0 |
| 20260507135351 | 11 | 215 | 9.7 | 11.3 | 0.00 | 0.00 | 0.00 | 64 | 1017.1 |
| 20260507134849 | 11 | 251 | 12.9 | 12.9 | 0.00 | 0.00 | 0.00 | 65 | 1017.1 |
| 20260507134345 | 11 | 249 | 14.5 | 17.7 | 0.00 | 0.00 | 0.00 | 64 | 1017.0 |
| 20260507133841 | 11 | 201 | 14.5 | 17.7 | 0.00 | 0.00 | 0.00 | 65 | 1017.1 |
| 20260507133336 | 10 | 231 | 12.9 | 14.5 | 0.00 | 0.00 | 0.00 | 67 | 1017.2 |
| 20260507132836 | 10 | 266 | 14.5 | 16.1 | 0.00 | 0.00 | 0.00 | 67 | 1017.2 |
| 20260507132331 | 10 | 270 | 11.3 | 12.9 | 0.00 | 0.00 | 0.00 | 68 | 1017.4 |
| 20260507131829 | 10 | 266 | 12.9 | 14.5 | 0.00 | 0.00 | 0.00 | 68 | 1017.3 |
| 20260507131325 | 10 | 219 | 14.5 | 14.5 | 0.00 | 0.00 | 0.00 | 68 | 1017.3 |
| 20260507130822 | 9 | 223 | 4.8 | 4.8 | 0.00 | 0.00 | 0.00 | 69 | 1017.3 |
| 20260507130319 | 8 | 220 | 6.4 | 6.4 | 0.00 | 0.00 | 0.00 | 70 | 1017.2 |
| 20260507125818 | 8 | 217 | 6.4 | 11.3 | 0.00 | 0.00 | 0.00 | 70 | 1017.3 |
| 20260507125315 | 8 | 243 | 9.7 | 12.9 | 0.00 | 0.00 | 0.00 | 71 | 1017.3 |
| 20260507124813 | 7 | 225 | 1.6 | 1.6 | 0.00 | 0.00 | 0.00 | 72 | 1017.2 |
| 20260507124309 | 7 | 225 | 1.6 | 1.6 | 0.00 | 0.00 | 0.00 | 73 | 1017.3 |
| 20260507123807 | 6 | 225 | 4.8 | 4.8 | 0.00 | 0.00 | 0.00 | 73 | 1017.3 |
| 20260507123304 | 6 | 198 | 3.2 | 3.2 | 0.00 | 0.00 | 0.00 | 74 | 1017.4 |
| 20260507122800 | 6 | 200 | 3.2 | 3.2 | 0.00 | 0.00 | 0.00 | 74 | 1017.3 |
| 20260507122255 | 5 | 190 | 3.2 | 3.2 | 0.00 | 0.00 | 0.00 | 75 | 1017.4 |
| 20260507121752 | 5 | 196 | 4.8 | 6.4 | 0.00 | 0.00 | 0.00 | 75 | 1017.2 |
| 20260507121248 | 5 | 192 | 3.2 | 3.2 | 0.00 | 0.00 | 0.00 | 76 | 1017.3 |
| 20260507120744 | 5 | 187 | 4.8 | 4.8 | 0.00 | 0.00 | 0.00 | 76 | 1017.1 |
| 20260507120241 | 5 | 191 | 3.2 | 4.8 | 0.00 | 0.00 | 0.00 | 76 | 1017.1 |
| 20260507115737 | 4 | 192 | 1.6 | 1.6 | 0.00 | 0.00 | 0.00 | 78 | 1017.0 |
| 20260507115233 | 4 | 194 | 1.6 | 1.6 | 0.00 | 0.00 | 0.00 | 78 | 1017.0 |
| 20260507114729 | 3 | 196 | 3.2 | 3.2 | 0.00 | 0.00 | 0.00 | 77 | 1017.1 |
| 20260507114226 | 3 | 196 | 1.6 | 1.6 | 0.00 | 0.00 | 0.00 | 77 | 1017.2 |
| 20260507113724 | 3 | 198 | 3.2 | 3.2 | 0.00 | 0.00 | 0.00 | 78 | 1017.2 |
| 20260507113220 | 3 | 198 | 3.2 | 3.2 | 0.00 | 0.00 | 0.00 | 78 | 1017.2 |
| 20260507112718 | 2 | 202 | 1.6 | 1.6 | 0.00 | 0.00 | 0.00 | 79 | 1017.4 |
| 20260507112215 | 2 | 205 | 1.6 | 1.6 | 0.00 | 0.00 | 0.00 | 79 | 1017.2 |
| 20260507111712 | 2 | 211 | 3.2 | 3.2 | 0.00 | 0.00 | 0.00 | 78 | 1017.1 |
| 20260507111209 | 2 | 221 | 3.2 | 3.2 | 0.00 | 0.00 | 0.00 | 78 | 1017.1 |
| 20260507110705 | 3 | 217 | 3.2 | 3.2 | 0.00 | 0.00 | 0.00 | 77 | 1017.0 |
| 20260507110202 | 3 | 217 | 3.2 | 1.6 | 0.00 | 0.00 | 0.00 | 76 | 1017.0 |
| 20260507105659 | 3 | 211 | 4.8 | 4.8 | 0.00 | 0.00 | 0.00 | 76 | 1016.9 |
| 20260507105155 | 3 | 210 | 3.2 | 3.2 | 0.00 | 0.00 | 0.00 | 76 | 1017.0 |
| 20260507104652 | 3 | 211 | 4.8 | 3.2 | 0.00 | 0.00 | 0.00 | 75 | 1016.9 |
| 20260507104148 | 3 | 213 | 3.2 | 3.2 | 0.00 | 0.00 | 0.00 | 75 | 1017.1 |
| 20260507103644 | 3 | 219 | 3.2 | 3.2 | 0.00 | 0.00 | 0.00 | 74 | 1017.2 |
| 20260507103141 | 3 | 222 | 3.2 | 3.2 | 0.00 | 0.00 | 0.00 | 74 | 1017.3 |
| 20260507102638 | 3 | 219 | 3.2 | 3.2 | 0.00 | 0.00 | 0.00 | 74 | 1017.1 |
| 20260507102134 | 3 | 210 | 4.8 | 4.8 | 0.00 | 0.00 | 0.00 | 74 | 1017.1 |
| 20260507101630 | 3 | 212 | 3.2 | 3.2 | 0.00 | 0.00 | 0.00 | 73 | 1017.4 |
| 20260507101126 | 3 | 212 | 3.2 | 3.2 | 0.00 | 0.00 | 0.00 | 73 | 1017.1 |
| 20260507100624 | 3 | 218 | 3.2 | 4.8 | 0.00 | 0.00 | 0.00 | 73 | 1017.3 |
| 20260507100122 | 3 | 205 | 3.2 | 3.2 | 0.00 | 0.00 | 0.00 | 75 | 1017.4 |
| 20260507095619 | 3 | 205 | 1.6 | 1.6 | 0.00 | 0.00 | 0.00 | 76 | 1017.6 |
| 20260507095115 | 2 | 205 | 1.6 | 1.6 | 0.00 | 0.00 | 0.00 | 76 | 1017.3 |
| 20260507094612 | 2 | 205 | 3.2 | 3.2 | 0.00 | 0.00 | 0.00 | 76 | 1017.4 |
| 20260507094109 | 3 | 206 | 1.6 | 1.6 | 0.00 | 0.00 | 0.00 | 75 | 1017.4 |
| 20260507093606 | 3 | 206 | 1.6 | 1.6 | 0.00 | 0.00 | 0.00 | 74 | 1017.4 |
| 20260507093105 | 3 | 206 | 1.6 | 1.6 | 0.00 | 0.00 | 0.00 | 73 | 1017.6 |
| 20260507092601 | 3 | 206 | 1.6 | 1.6 | 0.00 | 0.00 | 0.00 | 75 | 1017.6 |
| 20260507092057 | 3 | 206 | 1.6 | 1.6 | 0.00 | 0.00 | 0.00 | 74 | 1017.6 |
| 20260507091554 | 3 | 212 | 3.2 | 3.2 | 0.00 | 0.00 | 0.00 | 72 | 1017.7 |
| 20260507091050 | 3 | 216 | 1.6 | 1.6 | 0.00 | 0.00 | 0.00 | 72 | 1017.6 |
| 20260507090546 | 3 | 216 | 0.0 | 1.6 | 0.00 | 0.00 | 0.00 | 72 | 1017.7 |
| 20260507090044 | 3 | 217 | 3.2 | 3.2 | 0.00 | 0.00 | 0.00 | 71 | 1017.6 |
| 20260507085541 | 3 | 225 | 3.2 | 3.2 | 0.00 | 0.00 | 0.00 | 71 | 1017.8 |
| 20260507085037 | 3 | 226 | 3.2 | 3.2 | 0.00 | 0.00 | 0.00 | 72 | 1017.6 |
| 20260507084534 | 3 | 213 | 6.4 | 6.4 | 0.00 | 0.00 | 0.00 | 73 | 1017.8 |
| 20260507084031 | 3 | 205 | 4.8 | 4.8 | 0.00 | 0.00 | 0.00 | 73 | 1017.7 |
| 20260507083527 | 3 | 199 | 3.2 | 4.8 | 0.00 | 0.00 | 0.00 | 72 | 1017.9 |
| 20260507083024 | 3 | 209 | 3.2 | 3.2 | 0.00 | 0.00 | 0.00 | 73 | 1017.8 |
| 20260507082520 | 3 | 212 | 3.2 | 3.2 | 0.00 | 0.00 | 0.00 | 76 | 1017.8 |
| 20260507082016 | 3 | 211 | 3.2 | 3.2 | 0.00 | 0.00 | 0.00 | 77 | 1018.0 |
| 20260507081513 | 3 | 193 | 4.8 | 4.8 | 0.00 | 0.00 | 0.00 | 75 | 1018.0 |
| 20260507081010 | 4 | 189 | 6.4 | 6.4 | 0.00 | 0.00 | 0.00 | 73 | 1017.9 |
| 20260507080506 | 4 | 208 | 8.0 | 6.4 | 0.00 | 0.00 | 0.00 | 71 | 1018.1 |
| 20260507080001 | 4 | 216 | 6.4 | 6.4 | 0.00 | 0.00 | 0.00 | 70 | 1018.2 |
| 20260507075458 | 4 | 210 | 6.4 | 6.4 | 0.00 | 0.00 | 0.00 | 71 | 1018.1 |
| 20260507074954 | 3 | 211 | 4.8 | 4.8 | 0.00 | 0.00 | 0.00 | 73 | 1017.9 |
| 20260507074451 | 4 | 199 | 3.2 | 3.2 | 0.00 | 0.00 | 0.00 | 72 | 1018.1 |
| 20260507073950 | 3 | 208 | 3.2 | 3.2 | 0.00 | 0.00 | 0.00 | 74 | 1018.4 |
| 20260507073445 | 3 | 201 | 3.2 | 3.2 | 0.00 | 0.00 | 0.00 | 74 | 1018.3 |
| 20260507072942 | 3 | 215 | 3.2 | 3.2 | 0.00 | 0.00 | 0.00 | 74 | 1018.1 |
| 20260507072440 | 3 | 273 | 3.2 | 3.2 | 0.00 | 0.00 | 0.00 | 74 | 1018.4 |
| 20260507071937 | 3 | 274 | 1.6 | 1.6 | 0.00 | 0.00 | 0.00 | 75 | 1018.5 |
| 20260507071434 | 3 | 322 | 1.6 | 1.6 | 0.00 | 0.00 | 0.00 | 79 | 1018.5 |
| 20260507070930 | 3 | 322 | 0.0 | 0.0 | 0.00 | 0.00 | 0.00 | 78 | 1018.6 |
| 20260507070428 | 3 | 322 | 0.0 | 0.0 | 0.00 | 0.00 | 0.00 | 79 | 1018.5 |
| 20260507065924 | 3 | 322 | 0.0 | 0.0 | 0.00 | 0.00 | 0.00 | 82 | 1018.8 |
| 20260507065421 | 3 | 322 | 0.0 | 0.0 | 0.00 | 0.00 | 0.00 | 84 | 1018.9 |
| 20260507064919 | 2 | 322 | 0.0 | 0.0 | 0.00 | 0.00 | 0.00 | 82 | 1018.9 |
| 20260507064417 | 2 | 322 | 0.0 | 0.0 | 0.00 | 0.00 | 0.00 | 85 | 1018.9 |
| 20260507063914 | 2 | 323 | 0.0 | 0.0 | 0.00 | 0.00 | 0.00 | 85 | 1019.1 |
| 20260507063411 | 2 | 323 | 0.0 | 0.0 | 0.00 | 0.00 | 0.00 | 85 | 1018.8 |
| 20260507062908 | 3 | 323 | 0.0 | 0.0 | 0.00 | 0.00 | 0.00 | 84 | 1019.1 |
| 20260507062405 | 3 | 322 | 0.0 | 0.0 | 0.00 | 0.00 | 0.00 | 83 | 1019.0 |
| 20260507061903 | 3 | 322 | 0.0 | 0.0 | 0.00 | 0.00 | 0.00 | 86 | 1019.2 |
| 20260507061401 | 3 | 322 | 0.0 | 0.0 | 0.00 | 0.00 | 0.00 | 87 | 1019.1 |
| 20260507060859 | 2 | 323 | 0.0 | 0.0 | 0.00 | 0.00 | 0.00 | 88 | 1019.2 |
| 20260507060355 | 2 | 322 | 0.0 | 0.0 | 0.00 | 0.00 | 0.00 | 87 | 1019.0 |
| 20260507055852 | 3 | 323 | 0.0 | 0.0 | 0.00 | 0.00 | 0.00 | 85 | 1019.3 |
| 20260507055353 | 3 | 323 | 0.0 | 0.0 | 0.00 | 0.00 | 0.00 | 85 | 1019.3 |
| 20260507054850 | 3 | 322 | 0.0 | 0.0 | 0.00 | 0.00 | 0.00 | 87 | 1019.2 |
| 20260507054346 | 2 | 322 | 0.0 | 0.0 | 0.00 | 0.00 | 0.00 | 88 | 1019.4 |
| 20260507053843 | 2 | 323 | 0.0 | 0.0 | 0.00 | 0.00 | 0.00 | 88 | 1019.2 |
| 20260507053341 | 2 | 323 | 0.0 | 0.0 | 0.00 | 0.00 | 0.00 | 87 | 1019.4 |
| 20260507052840 | 2 | 322 | 0.0 | 0.0 | 0.00 | 0.00 | 0.00 | 86 | 1019.4 |
| 20260507052336 | 3 | 323 | 0.0 | 0.0 | 0.00 | 0.00 | 0.00 | 84 | 1019.5 |
| 20260507051834 | 3 | 323 | 0.0 | 0.0 | 0.00 | 0.00 | 0.00 | 83 | 1019.4 |
| 20260507051331 | 3 | 323 | 0.0 | 0.0 | 0.00 | 0.00 | 0.00 | 84 | 1019.4 |
| 20260507050828 | 3 | 322 | 0.0 | 0.0 | 0.00 | 0.00 | 0.00 | 86 | 1019.5 |
| 20260507050324 | 3 | 323 | 0.0 | 0.0 | 0.00 | 0.00 | 0.00 | 86 | 1019.5 |
| 20260507045821 | 3 | 323 | 0.0 | 0.0 | 0.00 | 0.00 | 0.00 | 84 | 1019.3 |
| 20260507045318 | 3 | 323 | 0.0 | 0.0 | 0.00 | 0.00 | 0.00 | 83 | 1019.4 |
| 20260507044815 | 3 | 323 | 0.0 | 0.0 | 0.00 | 0.00 | 0.00 | 82 | 1019.5 |
| 20260507044311 | 3 | 323 | 0.0 | 0.0 | 0.00 | 0.00 | 0.00 | 82 | 1019.3 |
| 20260507043807 | 3 | 323 | 0.0 | 0.0 | 0.00 | 0.00 | 0.00 | 80 | 1019.5 |
| 20260507043304 | 4 | 323 | 0.0 | 0.0 | 0.00 | 0.00 | 0.00 | 79 | 1019.6 |
| 20260507042800 | 5 | 323 | 0.0 | 0.0 | 0.00 | 0.00 | 0.00 | 77 | 1019.6 |
| 20260507042256 | 5 | 322 | 0.0 | 0.0 | 0.00 | 0.00 | 0.00 | 74 | 1019.6 |
| 20260507041753 | 5 | 322 | 0.0 | 0.0 | 0.00 | 0.00 | 0.00 | 74 | 1019.6 |
| 20260507041249 | 5 | 322 | 0.0 | 0.0 | 0.00 | 0.00 | 0.00 | 74 | 1019.6 |
| 20260507040747 | 5 | 322 | 0.0 | 0.0 | 0.00 | 0.00 | 0.00 | 74 | 1019.6 |
| 20260507040243 | 5 | 322 | 0.0 | 0.0 | 0.00 | 0.00 | 0.00 | 76 | 1019.4 |
| 20260507035739 | 5 | 323 | 0.0 | 0.0 | 0.00 | 0.00 | 0.00 | 76 | 1019.4 |
| 20260507035234 | 5 | 322 | 0.0 | 0.0 | 0.00 | 0.00 | 0.00 | 74 | 1019.6 |
| 20260507034732 | 5 | 323 | 0.0 | 0.0 | 0.00 | 0.00 | 0.00 | 72 | 1019.6 |
| 20260507034229 | 6 | 322 | 0.0 | 0.0 | 0.00 | 0.00 | 0.00 | 70 | 1019.6 |
| 20260507033727 | 5 | 322 | 1.6 | 1.6 | 0.00 | 0.00 | 0.00 | 71 | 1019.8 |
| 20260507033224 | 5 | 322 | 1.6 | 1.6 | 0.00 | 0.00 | 0.00 | 72 | 1019.7 |
| 20260507032722 | 5 | 322 | 0.0 | 0.0 | 0.00 | 0.00 | 0.00 | 71 | 1019.7 |
| 20260507032218 | 6 | 323 | 0.0 | 0.0 | 0.00 | 0.00 | 0.00 | 70 | 1019.6 |
| 20260507031715 | 6 | 322 | 0.0 | 0.0 | 0.00 | 0.00 | 0.00 | 66 | 1019.7 |
| 20260507031211 | 6 | 322 | 0.0 | 0.0 | 0.00 | 0.00 | 0.00 | 63 | 1019.7 |
| 20260507030708 | 6 | 322 | 0.0 | 0.0 | 0.00 | 0.00 | 0.00 | 61 | 1019.6 |
| 20260507030206 | 7 | 322 | 0.0 | 0.0 | 0.00 | 0.00 | 0.00 | 58 | 1019.8 |
| 20260507025702 | 7 | 322 | 0.0 | 0.0 | 0.00 | 0.00 | 0.00 | 54 | 1019.5 |
| 20260507025159 | 7 | 322 | 0.0 | 0.0 | 0.00 | 0.00 | 0.00 | 50 | 1019.6 |
| 20260507024658 | 7 | 322 | 1.6 | 1.6 | 0.00 | 0.00 | 0.00 | 52 | 1019.6 |
| 20260507024154 | 7 | 322 | 0.0 | 0.0 | 0.00 | 0.00 | 0.00 | 51 | 1019.5 |
| 20260507023650 | 8 | 322 | 0.0 | 0.0 | 0.00 | 0.00 | 0.00 | 51 | 1019.6 |
| 20260507023147 | 8 | 322 | 1.6 | 1.6 | 0.00 | 0.00 | 0.00 | 47 | 1019.5 |
| 20260507022644 | 8 | 322 | 3.2 | 3.2 | 0.00 | 0.00 | 0.00 | 52 | 1019.6 |
| 20260507022140 | 8 | 323 | 0.0 | 0.0 | 0.00 | 0.00 | 0.00 | 51 | 1019.5 |
| 20260507021637 | 8 | 323 | 0.0 | 0.0 | 0.00 | 0.00 | 0.00 | 48 | 1019.3 |
| 20260507021132 | 8 | 323 | 0.0 | 0.0 | 0.00 | 0.00 | 0.00 | 45 | 1019.3 |
| 20260507020631 | 8 | 323 | 0.0 | 0.0 | 0.00 | 0.00 | 0.00 | 43 | 1019.4 |